sensor_id;sensor_type;location;lat;lon;timestamp;P1;durP1;ratioP1;P2;durP2;ratioP2
49590;SDS011;35496;-21.974;-46.800;2023-08-06T00:00:35;9.20;;;6.43;;
49590;SDS011;35496;-21.974;-46.800;2023-08-06T00:03:01;10.70;;;7.13;;
49590;SDS011;35496;-21.974;-46.800;2023-08-06T00:05:27;18.27;;;5.28;;
49590;SDS011;35496;-21.974;-46.800;2023-08-06T00:07:53;17.65;;;7.65;;
49590;SDS011;35496;-21.974;-46.800;2023-08-06T00:10:19;11.73;;;5.90;;
49590;SDS011;35496;-21.974;-46.800;2023-08-06T00:12:45;8.23;;;5.57;;
49590;SDS011;35496;-21.974;-46.800;2023-08-06T00:15:11;12.90;;;6.05;;
49590;SDS011;35496;-21.974;-46.800;2023-08-06T00:17:38;8.52;;;6.43;;
49590;SDS011;35496;-21.974;-46.800;2023-08-06T00:20:04;12.65;;;6.25;;
49590;SDS011;35496;-21.974;-46.800;2023-08-06T00:22:35;9.02;;;5.45;;
49590;SDS011;35496;-21.974;-46.800;2023-08-06T00:25:02;9.10;;;6.55;;
49590;SDS011;35496;-21.974;-46.800;2023-08-06T00:27:28;9.75;;;7.30;;
49590;SDS011;35496;-21.974;-46.800;2023-08-06T00:29:55;11.07;;;6.22;;
49590;SDS011;35496;-21.974;-46.800;2023-08-06T00:32:21;12.65;;;6.57;;
49590;SDS011;35496;-21.974;-46.800;2023-08-06T00:34:47;12.27;;;6.47;;
49590;SDS011;35496;-21.974;-46.800;2023-08-06T00:37:16;11.80;;;7.05;;
49590;SDS011;35496;-21.974;-46.800;2023-08-06T00:39:42;14.00;;;7.40;;
49590;SDS011;35496;-21.974;-46.800;2023-08-06T00:42:09;13.38;;;8.82;;
49590;SDS011;35496;-21.974;-46.800;2023-08-06T00:44:35;12.80;;;8.85;;
49590;SDS011;35496;-21.974;-46.800;2023-08-06T00:47:01;12.48;;;8.85;;
49590;SDS011;35496;-21.974;-46.800;2023-08-06T00:49:27;15.68;;;10.50;;
49590;SDS011;35496;-21.974;-46.800;2023-08-06T00:51:53;15.27;;;11.98;;
49590;SDS011;35496;-21.974;-46.800;2023-08-06T00:54:20;30.70;;;11.80;;
49590;SDS011;35496;-21.974;-46.800;2023-08-06T00:56:46;17.52;;;11.93;;
49590;SDS011;35496;-21.974;-46.800;2023-08-06T00:59:13;14.57;;;11.27;;
49590;SDS011;35496;-21.974;-46.800;2023-08-06T01:01:39;13.70;;;11.15;;
49590;SDS011;35496;-21.974;-46.800;2023-08-06T01:04:06;12.35;;;9.40;;
49590;SDS011;35496;-21.974;-46.800;2023-08-06T01:09:08;21.80;;;10.05;;
49590;SDS011;35496;-21.974;-46.800;2023-08-06T01:14:21;25.58;;;8.27;;
49590;SDS011;35496;-21.974;-46.800;2023-08-06T01:16:50;12.88;;;8.80;;
49590;SDS011;35496;-21.974;-46.800;2023-08-06T01:19:17;18.92;;;9.65;;
49590;SDS011;35496;-21.974;-46.800;2023-08-06T01:21:43;13.85;;;9.20;;
49590;SDS011;35496;-21.974;-46.800;2023-08-06T01:24:09;14.40;;;9.55;;
49590;SDS011;35496;-21.974;-46.800;2023-08-06T01:29:25;15.95;;;9.32;;
49590;SDS011;35496;-21.974;-46.800;2023-08-06T01:31:54;15.73;;;9.75;;
49590;SDS011;35496;-21.974;-46.800;2023-08-06T01:34:22;12.27;;;9.00;;
49590;SDS011;35496;-21.974;-46.800;2023-08-06T01:36:50;14.50;;;9.18;;
49590;SDS011;35496;-21.974;-46.800;2023-08-06T01:39:16;20.73;;;11.13;;
49590;SDS011;35496;-21.974;-46.800;2023-08-06T01:41:42;20.70;;;12.40;;
49590;SDS011;35496;-21.974;-46.800;2023-08-06T01:44:08;19.05;;;12.32;;
49590;SDS011;35496;-21.974;-46.800;2023-08-06T01:46:34;15.63;;;11.95;;
49590;SDS011;35496;-21.974;-46.800;2023-08-06T01:49:00;24.83;;;13.38;;
49590;SDS011;35496;-21.974;-46.800;2023-08-06T01:51:26;13.30;;;10.15;;
49590;SDS011;35496;-21.974;-46.800;2023-08-06T01:53:52;17.83;;;10.98;;
49590;SDS011;35496;-21.974;-46.800;2023-08-06T01:56:18;17.58;;;10.18;;
49590;SDS011;35496;-21.974;-46.800;2023-08-06T01:58:44;13.52;;;9.82;;
49590;SDS011;35496;-21.974;-46.800;2023-08-06T02:01:10;8.55;;;6.22;;
49590;SDS011;35496;-21.974;-46.800;2023-08-06T02:03:36;16.33;;;9.55;;
49590;SDS011;35496;-21.974;-46.800;2023-08-06T02:06:02;10.23;;;7.50;;
49590;SDS011;35496;-21.974;-46.800;2023-08-06T02:08:29;10.70;;;7.57;;
49590;SDS011;35496;-21.974;-46.800;2023-08-06T02:10:55;14.98;;;9.23;;
49590;SDS011;35496;-21.974;-46.800;2023-08-06T02:13:21;9.60;;;7.53;;
49590;SDS011;35496;-21.974;-46.800;2023-08-06T02:15:47;8.63;;;6.97;;
49590;SDS011;35496;-21.974;-46.800;2023-08-06T02:18:13;14.30;;;8.05;;
49590;SDS011;35496;-21.974;-46.800;2023-08-06T02:20:40;15.65;;;8.95;;
49590;SDS011;35496;-21.974;-46.800;2023-08-06T02:23:06;15.95;;;9.27;;
49590;SDS011;35496;-21.974;-46.800;2023-08-06T02:25:32;11.68;;;9.73;;
49590;SDS011;35496;-21.974;-46.800;2023-08-06T02:27:58;17.25;;;9.70;;
49590;SDS011;35496;-21.974;-46.800;2023-08-06T02:30:24;21.38;;;12.43;;
49590;SDS011;35496;-21.974;-46.800;2023-08-06T02:32:50;13.70;;;9.50;;
49590;SDS011;35496;-21.974;-46.800;2023-08-06T02:35:16;17.63;;;9.95;;
49590;SDS011;35496;-21.974;-46.800;2023-08-06T02:37:42;12.68;;;9.00;;
49590;SDS011;35496;-21.974;-46.800;2023-08-06T02:40:09;12.40;;;7.90;;
49590;SDS011;35496;-21.974;-46.800;2023-08-06T02:42:35;11.77;;;7.20;;
49590;SDS011;35496;-21.974;-46.800;2023-08-06T02:45:01;15.45;;;8.07;;
49590;SDS011;35496;-21.974;-46.800;2023-08-06T02:47:27;12.98;;;7.40;;
49590;SDS011;35496;-21.974;-46.800;2023-08-06T02:49:53;18.48;;;8.27;;
49590;SDS011;35496;-21.974;-46.800;2023-08-06T02:52:19;13.90;;;6.88;;
49590;SDS011;35496;-21.974;-46.800;2023-08-06T02:54:45;11.60;;;6.13;;
49590;SDS011;35496;-21.974;-46.800;2023-08-06T02:57:11;12.18;;;7.22;;
49590;SDS011;35496;-21.974;-46.800;2023-08-06T02:59:37;10.10;;;7.47;;
49590;SDS011;35496;-21.974;-46.800;2023-08-06T03:02:03;15.75;;;7.53;;
49590;SDS011;35496;-21.974;-46.800;2023-08-06T03:04:30;19.25;;;8.55;;
49590;SDS011;35496;-21.974;-46.800;2023-08-06T03:06:56;15.43;;;8.75;;
49590;SDS011;35496;-21.974;-46.800;2023-08-06T03:09:22;18.08;;;8.50;;
49590;SDS011;35496;-21.974;-46.800;2023-08-06T03:11:48;13.20;;;8.23;;
49590;SDS011;35496;-21.974;-46.800;2023-08-06T03:14:14;27.33;;;7.43;;
49590;SDS011;35496;-21.974;-46.800;2023-08-06T03:16:40;20.70;;;8.88;;
49590;SDS011;35496;-21.974;-46.800;2023-08-06T03:19:06;12.63;;;8.65;;
49590;SDS011;35496;-21.974;-46.800;2023-08-06T03:21:32;14.80;;;9.13;;
49590;SDS011;35496;-21.974;-46.800;2023-08-06T03:23:58;10.55;;;6.85;;
49590;SDS011;35496;-21.974;-46.800;2023-08-06T03:26:24;12.93;;;7.97;;
49590;SDS011;35496;-21.974;-46.800;2023-08-06T03:28:50;10.38;;;7.65;;
49590;SDS011;35496;-21.974;-46.800;2023-08-06T03:31:16;15.73;;;7.85;;
49590;SDS011;35496;-21.974;-46.800;2023-08-06T03:33:42;21.17;;;8.65;;
49590;SDS011;35496;-21.974;-46.800;2023-08-06T03:36:08;16.00;;;7.88;;
49590;SDS011;35496;-21.974;-46.800;2023-08-06T03:38:34;18.08;;;10.85;;
49590;SDS011;35496;-21.974;-46.800;2023-08-06T03:41:00;12.75;;;8.40;;
49590;SDS011;35496;-21.974;-46.800;2023-08-06T03:43:26;21.67;;;9.20;;
49590;SDS011;35496;-21.974;-46.800;2023-08-06T03:45:52;21.92;;;8.13;;
49590;SDS011;35496;-21.974;-46.800;2023-08-06T03:48:18;13.10;;;8.43;;
49590;SDS011;35496;-21.974;-46.800;2023-08-06T03:50:44;15.25;;;8.88;;
49590;SDS011;35496;-21.974;-46.800;2023-08-06T03:53:11;24.10;;;11.63;;
49590;SDS011;35496;-21.974;-46.800;2023-08-06T03:55:37;14.85;;;9.18;;
49590;SDS011;35496;-21.974;-46.800;2023-08-06T03:58:03;17.52;;;9.23;;
49590;SDS011;35496;-21.974;-46.800;2023-08-06T04:00:31;17.02;;;9.95;;
49590;SDS011;35496;-21.974;-46.800;2023-08-06T04:02:57;24.00;;;10.50;;
49590;SDS011;35496;-21.974;-46.800;2023-08-06T04:05:23;21.75;;;9.93;;
49590;SDS011;35496;-21.974;-46.800;2023-08-06T04:07:49;19.55;;;10.15;;
49590;SDS011;35496;-21.974;-46.800;2023-08-06T04:10:15;14.88;;;8.48;;
49590;SDS011;35496;-21.974;-46.800;2023-08-06T04:12:41;21.08;;;10.38;;
49590;SDS011;35496;-21.974;-46.800;2023-08-06T04:15:07;18.88;;;8.73;;
49590;SDS011;35496;-21.974;-46.800;2023-08-06T04:17:33;23.90;;;9.77;;
49590;SDS011;35496;-21.974;-46.800;2023-08-06T04:19:59;20.80;;;9.18;;
49590;SDS011;35496;-21.974;-46.800;2023-08-06T04:22:25;14.40;;;10.23;;
49590;SDS011;35496;-21.974;-46.800;2023-08-06T04:24:51;30.35;;;10.50;;
49590;SDS011;35496;-21.974;-46.800;2023-08-06T04:27:18;21.17;;;10.38;;
49590;SDS011;35496;-21.974;-46.800;2023-08-06T04:29:45;21.67;;;10.65;;
49590;SDS011;35496;-21.974;-46.800;2023-08-06T04:32:11;22.23;;;12.05;;
49590;SDS011;35496;-21.974;-46.800;2023-08-06T04:34:38;24.58;;;11.35;;
49590;SDS011;35496;-21.974;-46.800;2023-08-06T04:37:04;22.52;;;11.98;;
49590;SDS011;35496;-21.974;-46.800;2023-08-06T04:39:30;19.38;;;10.73;;
49590;SDS011;35496;-21.974;-46.800;2023-08-06T04:41:56;24.08;;;11.32;;
49590;SDS011;35496;-21.974;-46.800;2023-08-06T04:44:26;16.52;;;9.55;;
49590;SDS011;35496;-21.974;-46.800;2023-08-06T04:47:04;24.83;;;11.65;;
49590;SDS011;35496;-21.974;-46.800;2023-08-06T04:49:30;23.75;;;11.10;;
49590;SDS011;35496;-21.974;-46.800;2023-08-06T04:51:56;14.75;;;9.70;;
49590;SDS011;35496;-21.974;-46.800;2023-08-06T04:54:22;19.05;;;10.73;;
49590;SDS011;35496;-21.974;-46.800;2023-08-06T04:56:48;19.10;;;13.25;;
49590;SDS011;35496;-21.974;-46.800;2023-08-06T04:59:14;33.95;;;12.00;;
49590;SDS011;35496;-21.974;-46.800;2023-08-06T05:01:40;27.00;;;10.63;;
49590;SDS011;35496;-21.974;-46.800;2023-08-06T05:04:06;17.45;;;11.73;;
49590;SDS011;35496;-21.974;-46.800;2023-08-06T05:06:32;22.85;;;9.68;;
49590;SDS011;35496;-21.974;-46.800;2023-08-06T05:08:58;20.92;;;10.07;;
49590;SDS011;35496;-21.974;-46.800;2023-08-06T05:11:24;16.33;;;10.32;;
49590;SDS011;35496;-21.974;-46.800;2023-08-06T05:13:50;27.33;;;10.90;;
49590;SDS011;35496;-21.974;-46.800;2023-08-06T05:16:16;14.82;;;9.73;;
49590;SDS011;35496;-21.974;-46.800;2023-08-06T05:18:42;13.27;;;8.65;;
49590;SDS011;35496;-21.974;-46.800;2023-08-06T05:21:08;13.52;;;9.82;;
49590;SDS011;35496;-21.974;-46.800;2023-08-06T05:23:34;14.95;;;8.32;;
49590;SDS011;35496;-21.974;-46.800;2023-08-06T05:26:00;22.92;;;9.23;;
49590;SDS011;35496;-21.974;-46.800;2023-08-06T05:28:26;17.65;;;9.25;;
49590;SDS011;35496;-21.974;-46.800;2023-08-06T05:30:52;16.58;;;9.70;;
49590;SDS011;35496;-21.974;-46.800;2023-08-06T05:33:18;20.40;;;9.23;;
49590;SDS011;35496;-21.974;-46.800;2023-08-06T05:35:44;18.65;;;10.75;;
49590;SDS011;35496;-21.974;-46.800;2023-08-06T05:38:10;12.60;;;9.38;;
49590;SDS011;35496;-21.974;-46.800;2023-08-06T05:40:36;23.65;;;12.07;;
49590;SDS011;35496;-21.974;-46.800;2023-08-06T05:43:02;19.50;;;10.82;;
49590;SDS011;35496;-21.974;-46.800;2023-08-06T05:45:28;15.70;;;10.60;;
49590;SDS011;35496;-21.974;-46.800;2023-08-06T05:47:54;17.70;;;9.80;;
49590;SDS011;35496;-21.974;-46.800;2023-08-06T05:50:23;21.25;;;10.57;;
49590;SDS011;35496;-21.974;-46.800;2023-08-06T05:52:49;15.80;;;10.02;;
49590;SDS011;35496;-21.974;-46.800;2023-08-06T05:55:15;19.05;;;8.70;;
49590;SDS011;35496;-21.974;-46.800;2023-08-06T05:57:41;20.60;;;8.57;;
49590;SDS011;35496;-21.974;-46.800;2023-08-06T06:00:07;11.00;;;7.70;;
49590;SDS011;35496;-21.974;-46.800;2023-08-06T06:02:33;14.88;;;8.38;;
49590;SDS011;35496;-21.974;-46.800;2023-08-06T06:04:59;14.55;;;8.10;;
49590;SDS011;35496;-21.974;-46.800;2023-08-06T06:07:26;14.13;;;8.00;;
49590;SDS011;35496;-21.974;-46.800;2023-08-06T06:09:51;14.20;;;9.02;;
49590;SDS011;35496;-21.974;-46.800;2023-08-06T06:12:18;18.42;;;9.05;;
49590;SDS011;35496;-21.974;-46.800;2023-08-06T06:14:44;13.18;;;8.60;;
49590;SDS011;35496;-21.974;-46.800;2023-08-06T06:17:10;18.13;;;7.07;;
49590;SDS011;35496;-21.974;-46.800;2023-08-06T06:19:36;16.17;;;7.97;;
49590;SDS011;35496;-21.974;-46.800;2023-08-06T06:22:02;9.18;;;6.70;;
49590;SDS011;35496;-21.974;-46.800;2023-08-06T06:24:28;8.98;;;7.05;;
49590;SDS011;35496;-21.974;-46.800;2023-08-06T06:26:54;13.30;;;7.97;;
49590;SDS011;35496;-21.974;-46.800;2023-08-06T06:29:20;18.42;;;7.22;;
49590;SDS011;35496;-21.974;-46.800;2023-08-06T06:31:46;13.30;;;7.78;;
49590;SDS011;35496;-21.974;-46.800;2023-08-06T06:34:12;14.32;;;7.30;;
49590;SDS011;35496;-21.974;-46.800;2023-08-06T06:36:38;10.60;;;6.32;;
49590;SDS011;35496;-21.974;-46.800;2023-08-06T06:39:04;17.10;;;6.93;;
49590;SDS011;35496;-21.974;-46.800;2023-08-06T06:41:30;13.38;;;7.32;;
49590;SDS011;35496;-21.974;-46.800;2023-08-06T06:43:58;14.50;;;7.03;;
49590;SDS011;35496;-21.974;-46.800;2023-08-06T06:46:24;13.88;;;7.35;;
49590;SDS011;35496;-21.974;-46.800;2023-08-06T06:48:50;11.85;;;6.10;;
49590;SDS011;35496;-21.974;-46.800;2023-08-06T06:51:16;7.85;;;5.80;;
49590;SDS011;35496;-21.974;-46.800;2023-08-06T06:53:42;9.23;;;5.97;;
49590;SDS011;35496;-21.974;-46.800;2023-08-06T06:56:08;7.05;;;4.95;;
49590;SDS011;35496;-21.974;-46.800;2023-08-06T06:58:34;14.13;;;6.22;;
49590;SDS011;35496;-21.974;-46.800;2023-08-06T07:01:00;9.23;;;5.78;;
49590;SDS011;35496;-21.974;-46.800;2023-08-06T07:03:26;10.27;;;5.65;;
49590;SDS011;35496;-21.974;-46.800;2023-08-06T07:05:56;15.32;;;6.43;;
49590;SDS011;35496;-21.974;-46.800;2023-08-06T07:08:23;9.38;;;5.03;;
49590;SDS011;35496;-21.974;-46.800;2023-08-06T07:10:49;14.15;;;5.78;;
49590;SDS011;35496;-21.974;-46.800;2023-08-06T07:13:15;10.00;;;5.00;;
49590;SDS011;35496;-21.974;-46.800;2023-08-06T07:15:42;8.00;;;5.22;;
49590;SDS011;35496;-21.974;-46.800;2023-08-06T07:18:08;7.93;;;4.38;;
49590;SDS011;35496;-21.974;-46.800;2023-08-06T07:20:34;10.40;;;5.72;;
49590;SDS011;35496;-21.974;-46.800;2023-08-06T07:23:00;11.77;;;5.82;;
49590;SDS011;35496;-21.974;-46.800;2023-08-06T07:25:27;6.03;;;5.32;;
49590;SDS011;35496;-21.974;-46.800;2023-08-06T07:27:53;12.70;;;5.28;;
49590;SDS011;35496;-21.974;-46.800;2023-08-06T07:30:19;15.18;;;6.28;;
49590;SDS011;35496;-21.974;-46.800;2023-08-06T07:32:45;9.80;;;4.82;;
49590;SDS011;35496;-21.974;-46.800;2023-08-06T07:35:11;10.32;;;3.97;;
49590;SDS011;35496;-21.974;-46.800;2023-08-06T07:37:38;9.82;;;4.75;;
49590;SDS011;35496;-21.974;-46.800;2023-08-06T07:40:04;8.02;;;5.00;;
49590;SDS011;35496;-21.974;-46.800;2023-08-06T07:42:30;9.95;;;5.75;;
49590;SDS011;35496;-21.974;-46.800;2023-08-06T07:44:58;14.05;;;6.25;;
49590;SDS011;35496;-21.974;-46.800;2023-08-06T07:47:24;6.65;;;4.25;;
49590;SDS011;35496;-21.974;-46.800;2023-08-06T07:49:50;7.88;;;4.15;;
49590;SDS011;35496;-21.974;-46.800;2023-08-06T07:52:16;7.63;;;4.55;;
49590;SDS011;35496;-21.974;-46.800;2023-08-06T07:54:42;11.23;;;5.15;;
49590;SDS011;35496;-21.974;-46.800;2023-08-06T07:57:08;10.13;;;5.32;;
49590;SDS011;35496;-21.974;-46.800;2023-08-06T07:59:34;9.25;;;4.72;;
49590;SDS011;35496;-21.974;-46.800;2023-08-06T08:02:00;11.52;;;4.82;;
49590;SDS011;35496;-21.974;-46.800;2023-08-06T08:04:26;8.95;;;5.25;;
49590;SDS011;35496;-21.974;-46.800;2023-08-06T08:06:52;8.50;;;4.88;;
49590;SDS011;35496;-21.974;-46.800;2023-08-06T08:09:18;7.88;;;4.40;;
49590;SDS011;35496;-21.974;-46.800;2023-08-06T08:11:45;11.38;;;5.20;;
49590;SDS011;35496;-21.974;-46.800;2023-08-06T08:14:12;7.32;;;4.43;;
49590;SDS011;35496;-21.974;-46.800;2023-08-06T08:16:38;11.95;;;5.10;;
49590;SDS011;35496;-21.974;-46.800;2023-08-06T08:19:04;4.88;;;4.38;;
49590;SDS011;35496;-21.974;-46.800;2023-08-06T08:21:31;9.10;;;5.32;;
49590;SDS011;35496;-21.974;-46.800;2023-08-06T08:23:59;9.45;;;5.28;;
49590;SDS011;35496;-21.974;-46.800;2023-08-06T08:26:25;6.35;;;4.38;;
49590;SDS011;35496;-21.974;-46.800;2023-08-06T08:28:53;10.23;;;5.55;;
49590;SDS011;35496;-21.974;-46.800;2023-08-06T08:31:19;5.63;;;3.80;;
49590;SDS011;35496;-21.974;-46.800;2023-08-06T08:33:45;8.52;;;5.03;;
49590;SDS011;35496;-21.974;-46.800;2023-08-06T08:36:11;9.02;;;4.22;;
49590;SDS011;35496;-21.974;-46.800;2023-08-06T08:38:37;9.88;;;5.35;;
49590;SDS011;35496;-21.974;-46.800;2023-08-06T08:41:03;7.45;;;3.30;;
49590;SDS011;35496;-21.974;-46.800;2023-08-06T08:43:29;4.40;;;3.35;;
49590;SDS011;35496;-21.974;-46.800;2023-08-06T08:45:56;5.65;;;3.85;;
49590;SDS011;35496;-21.974;-46.800;2023-08-06T08:48:24;6.88;;;4.75;;
49590;SDS011;35496;-21.974;-46.800;2023-08-06T08:50:52;9.07;;;4.43;;
49590;SDS011;35496;-21.974;-46.800;2023-08-06T08:53:18;13.38;;;4.40;;
49590;SDS011;35496;-21.974;-46.800;2023-08-06T08:55:46;5.97;;;3.70;;
49590;SDS011;35496;-21.974;-46.800;2023-08-06T08:58:13;4.80;;;3.92;;
49590;SDS011;35496;-21.974;-46.800;2023-08-06T09:00:41;6.60;;;4.45;;
49590;SDS011;35496;-21.974;-46.800;2023-08-06T09:03:09;7.43;;;4.38;;
49590;SDS011;35496;-21.974;-46.800;2023-08-06T09:05:36;8.60;;;3.67;;
49590;SDS011;35496;-21.974;-46.800;2023-08-06T09:08:04;8.82;;;4.75;;
49590;SDS011;35496;-21.974;-46.800;2023-08-06T09:10:30;7.80;;;4.00;;
49590;SDS011;35496;-21.974;-46.800;2023-08-06T09:12:57;6.32;;;4.10;;
49590;SDS011;35496;-21.974;-46.800;2023-08-06T09:15:24;8.13;;;4.60;;
49590;SDS011;35496;-21.974;-46.800;2023-08-06T09:17:51;6.88;;;3.92;;
49590;SDS011;35496;-21.974;-46.800;2023-08-06T09:20:17;5.00;;;3.58;;
49590;SDS011;35496;-21.974;-46.800;2023-08-06T09:22:43;5.13;;;3.78;;
49590;SDS011;35496;-21.974;-46.800;2023-08-06T09:25:11;7.80;;;4.03;;
49590;SDS011;35496;-21.974;-46.800;2023-08-06T09:27:39;5.38;;;4.15;;
49590;SDS011;35496;-21.974;-46.800;2023-08-06T09:30:05;6.45;;;3.60;;
49590;SDS011;35496;-21.974;-46.800;2023-08-06T09:32:45;5.55;;;4.13;;
49590;SDS011;35496;-21.974;-46.800;2023-08-06T09:35:16;13.35;;;4.78;;
49590;SDS011;35496;-21.974;-46.800;2023-08-06T09:37:42;16.00;;;5.10;;
49590;SDS011;35496;-21.974;-46.800;2023-08-06T09:42:52;4.30;;;3.58;;
49590;SDS011;35496;-21.974;-46.800;2023-08-06T09:45:18;5.18;;;3.50;;
49590;SDS011;35496;-21.974;-46.800;2023-08-06T09:47:45;5.78;;;3.63;;
49590;SDS011;35496;-21.974;-46.800;2023-08-06T09:50:20;12.20;;;4.40;;
49590;SDS011;35496;-21.974;-46.800;2023-08-06T09:52:50;4.72;;;3.38;;
49590;SDS011;35496;-21.974;-46.800;2023-08-06T09:55:16;8.90;;;3.65;;
49590;SDS011;35496;-21.974;-46.800;2023-08-06T09:57:43;7.03;;;4.18;;
49590;SDS011;35496;-21.974;-46.800;2023-08-06T10:00:10;6.85;;;3.53;;
49590;SDS011;35496;-21.974;-46.800;2023-08-06T10:02:39;7.85;;;3.83;;
49590;SDS011;35496;-21.974;-46.800;2023-08-06T10:05:06;9.13;;;4.30;;
49590;SDS011;35496;-21.974;-46.800;2023-08-06T10:07:33;14.82;;;4.43;;
49590;SDS011;35496;-21.974;-46.800;2023-08-06T10:09:59;7.50;;;4.65;;
49590;SDS011;35496;-21.974;-46.800;2023-08-06T10:12:26;8.18;;;4.13;;
49590;SDS011;35496;-21.974;-46.800;2023-08-06T10:14:54;9.07;;;4.22;;
49590;SDS011;35496;-21.974;-46.800;2023-08-06T10:17:21;10.35;;;4.82;;
49590;SDS011;35496;-21.974;-46.800;2023-08-06T10:19:48;8.82;;;4.20;;
49590;SDS011;35496;-21.974;-46.800;2023-08-06T10:22:15;5.03;;;4.10;;
49590;SDS011;35496;-21.974;-46.800;2023-08-06T10:27:39;7.72;;;4.20;;
49590;SDS011;35496;-21.974;-46.800;2023-08-06T10:32:46;7.75;;;4.15;;
49590;SDS011;35496;-21.974;-46.800;2023-08-06T10:40:32;4.13;;;3.72;;
49590;SDS011;35496;-21.974;-46.800;2023-08-06T10:42:59;8.57;;;5.03;;
49590;SDS011;35496;-21.974;-46.800;2023-08-06T10:45:25;8.52;;;4.35;;
49590;SDS011;35496;-21.974;-46.800;2023-08-06T10:47:54;11.00;;;4.75;;
49590;SDS011;35496;-21.974;-46.800;2023-08-06T10:50:24;10.80;;;4.70;;
49590;SDS011;35496;-21.974;-46.800;2023-08-06T10:52:50;8.90;;;5.32;;
49590;SDS011;35496;-21.974;-46.800;2023-08-06T10:55:26;12.07;;;4.05;;
49590;SDS011;35496;-21.974;-46.800;2023-08-06T10:57:52;9.63;;;4.63;;
49590;SDS011;35496;-21.974;-46.800;2023-08-06T11:00:19;5.05;;;4.00;;
49590;SDS011;35496;-21.974;-46.800;2023-08-06T11:02:46;7.25;;;4.07;;
49590;SDS011;35496;-21.974;-46.800;2023-08-06T11:05:13;5.95;;;3.95;;
49590;SDS011;35496;-21.974;-46.800;2023-08-06T11:07:39;6.55;;;4.13;;
49590;SDS011;35496;-21.974;-46.800;2023-08-06T11:10:23;6.88;;;4.43;;
49590;SDS011;35496;-21.974;-46.800;2023-08-06T11:12:49;8.20;;;4.50;;
49590;SDS011;35496;-21.974;-46.800;2023-08-06T11:15:15;4.50;;;3.92;;
49590;SDS011;35496;-21.974;-46.800;2023-08-06T11:17:41;8.73;;;4.85;;
49590;SDS011;35496;-21.974;-46.800;2023-08-06T11:20:07;8.25;;;4.80;;
49590;SDS011;35496;-21.974;-46.800;2023-08-06T11:22:35;5.60;;;4.22;;
49590;SDS011;35496;-21.974;-46.800;2023-08-06T11:25:01;4.85;;;3.35;;
49590;SDS011;35496;-21.974;-46.800;2023-08-06T11:27:27;7.22;;;3.40;;
49590;SDS011;35496;-21.974;-46.800;2023-08-06T11:29:56;5.95;;;4.20;;
49590;SDS011;35496;-21.974;-46.800;2023-08-06T11:32:22;8.93;;;4.00;;
49590;SDS011;35496;-21.974;-46.800;2023-08-06T11:34:49;9.43;;;4.10;;
49590;SDS011;35496;-21.974;-46.800;2023-08-06T11:37:15;6.20;;;4.35;;
49590;SDS011;35496;-21.974;-46.800;2023-08-06T11:39:46;6.88;;;4.00;;
49590;SDS011;35496;-21.974;-46.800;2023-08-06T11:42:13;4.97;;;3.72;;
49590;SDS011;35496;-21.974;-46.800;2023-08-06T11:44:40;24.45;;;5.50;;
49590;SDS011;35496;-21.974;-46.800;2023-08-06T11:47:14;6.22;;;3.53;;
49590;SDS011;35496;-21.974;-46.800;2023-08-06T11:54:39;4.22;;;3.08;;
49590;SDS011;35496;-21.974;-46.800;2023-08-06T11:57:05;5.47;;;3.30;;
49590;SDS011;35496;-21.974;-46.800;2023-08-06T11:59:31;6.75;;;4.07;;
49590;SDS011;35496;-21.974;-46.800;2023-08-06T12:01:59;3.78;;;3.53;;
49590;SDS011;35496;-21.974;-46.800;2023-08-06T12:04:26;6.85;;;3.78;;
49590;SDS011;35496;-21.974;-46.800;2023-08-06T12:06:52;4.53;;;3.35;;
49590;SDS011;35496;-21.974;-46.800;2023-08-06T12:09:18;6.20;;;3.55;;
49590;SDS011;35496;-21.974;-46.800;2023-08-06T12:11:46;5.97;;;4.00;;
49590;SDS011;35496;-21.974;-46.800;2023-08-06T12:14:12;6.05;;;4.40;;
49590;SDS011;35496;-21.974;-46.800;2023-08-06T12:16:38;8.98;;;4.75;;
49590;SDS011;35496;-21.974;-46.800;2023-08-06T12:19:04;7.57;;;3.42;;
49590;SDS011;35496;-21.974;-46.800;2023-08-06T12:21:30;4.95;;;3.75;;
49590;SDS011;35496;-21.974;-46.800;2023-08-06T12:23:56;7.55;;;4.10;;
49590;SDS011;35496;-21.974;-46.800;2023-08-06T12:26:22;9.68;;;4.03;;
49590;SDS011;35496;-21.974;-46.800;2023-08-06T12:28:48;11.68;;;3.95;;
49590;SDS011;35496;-21.974;-46.800;2023-08-06T12:31:15;4.55;;;3.20;;
49590;SDS011;35496;-21.974;-46.800;2023-08-06T12:33:41;3.75;;;3.25;;
49590;SDS011;35496;-21.974;-46.800;2023-08-06T12:36:07;4.90;;;3.97;;
49590;SDS011;35496;-21.974;-46.800;2023-08-06T12:38:33;4.63;;;3.92;;
49590;SDS011;35496;-21.974;-46.800;2023-08-06T12:40:59;10.00;;;3.97;;
49590;SDS011;35496;-21.974;-46.800;2023-08-06T12:43:25;6.75;;;3.50;;
49590;SDS011;35496;-21.974;-46.800;2023-08-06T12:45:51;8.30;;;2.92;;
49590;SDS011;35496;-21.974;-46.800;2023-08-06T12:48:17;4.68;;;3.47;;
49590;SDS011;35496;-21.974;-46.800;2023-08-06T12:50:44;5.28;;;3.80;;
49590;SDS011;35496;-21.974;-46.800;2023-08-06T12:53:10;5.78;;;4.22;;
49590;SDS011;35496;-21.974;-46.800;2023-08-06T12:55:36;10.75;;;3.83;;
49590;SDS011;35496;-21.974;-46.800;2023-08-06T12:58:02;6.18;;;3.72;;
49590;SDS011;35496;-21.974;-46.800;2023-08-06T13:00:28;6.97;;;4.40;;
49590;SDS011;35496;-21.974;-46.800;2023-08-06T13:02:54;4.95;;;3.45;;
49590;SDS011;35496;-21.974;-46.800;2023-08-06T13:05:21;5.45;;;3.47;;
49590;SDS011;35496;-21.974;-46.800;2023-08-06T13:07:47;4.53;;;3.22;;
49590;SDS011;35496;-21.974;-46.800;2023-08-06T13:10:13;5.40;;;3.70;;
49590;SDS011;35496;-21.974;-46.800;2023-08-06T13:12:39;6.07;;;3.30;;
49590;SDS011;35496;-21.974;-46.800;2023-08-06T13:15:05;5.40;;;3.30;;
49590;SDS011;35496;-21.974;-46.800;2023-08-06T13:17:31;7.03;;;3.63;;
49590;SDS011;35496;-21.974;-46.800;2023-08-06T13:19:57;6.35;;;3.15;;
49590;SDS011;35496;-21.974;-46.800;2023-08-06T13:22:23;4.15;;;3.30;;
49590;SDS011;35496;-21.974;-46.800;2023-08-06T13:24:49;3.30;;;2.65;;
49590;SDS011;35496;-21.974;-46.800;2023-08-06T13:27:15;8.05;;;2.97;;
49590;SDS011;35496;-21.974;-46.800;2023-08-06T13:29:41;4.18;;;3.03;;
49590;SDS011;35496;-21.974;-46.800;2023-08-06T13:32:07;4.53;;;2.67;;
49590;SDS011;35496;-21.974;-46.800;2023-08-06T13:34:33;5.03;;;2.80;;
49590;SDS011;35496;-21.974;-46.800;2023-08-06T13:37:00;8.90;;;3.05;;
49590;SDS011;35496;-21.974;-46.800;2023-08-06T13:39:26;7.15;;;3.65;;
49590;SDS011;35496;-21.974;-46.800;2023-08-06T13:41:52;8.55;;;4.25;;
49590;SDS011;35496;-21.974;-46.800;2023-08-06T13:44:18;8.95;;;3.50;;
49590;SDS011;35496;-21.974;-46.800;2023-08-06T13:46:44;4.40;;;3.47;;
49590;SDS011;35496;-21.974;-46.800;2023-08-06T13:49:10;12.13;;;3.88;;
49590;SDS011;35496;-21.974;-46.800;2023-08-06T13:51:36;4.20;;;3.30;;
49590;SDS011;35496;-21.974;-46.800;2023-08-06T13:54:03;5.32;;;3.45;;
49590;SDS011;35496;-21.974;-46.800;2023-08-06T13:56:29;6.53;;;3.45;;
49590;SDS011;35496;-21.974;-46.800;2023-08-06T13:58:55;7.70;;;3.72;;
49590;SDS011;35496;-21.974;-46.800;2023-08-06T14:01:21;4.55;;;3.45;;
49590;SDS011;35496;-21.974;-46.800;2023-08-06T14:03:48;4.50;;;2.80;;
49590;SDS011;35496;-21.974;-46.800;2023-08-06T14:06:14;5.30;;;3.03;;
49590;SDS011;35496;-21.974;-46.800;2023-08-06T14:08:40;6.30;;;3.50;;
49590;SDS011;35496;-21.974;-46.800;2023-08-06T14:11:06;5.28;;;4.10;;
49590;SDS011;35496;-21.974;-46.800;2023-08-06T14:13:32;4.72;;;3.13;;
49590;SDS011;35496;-21.974;-46.800;2023-08-06T14:15:58;3.40;;;2.90;;
49590;SDS011;35496;-21.974;-46.800;2023-08-06T14:18:24;11.77;;;2.90;;
49590;SDS011;35496;-21.974;-46.800;2023-08-06T14:20:50;5.63;;;3.88;;
49590;SDS011;35496;-21.974;-46.800;2023-08-06T14:23:16;6.05;;;2.58;;